Wrangell Airport
PAWG : now visible

Airfield :











YOU CAN JOIN US ON...

 
LOGIN :

Register | Disclaimer

   EN    FR    IT 

 









Legend :    VFR   Marginal VFR   IFR   Intensive IFR   Very Intensive IFR
Visi :
Ceiling :
>= 8 km
>= 3000ft
5 to 8 km
1000 to 3000 ft
1500m to 5 km
500 to 1000 ft
800 to 1500m
200 to 500 ft
< 800m
< 200 ft
Symbols :   Thunderstorms  Fog  Heavy snow  Heavy precipitations  Wind > 20 kt






- Airport Elevation : 49 ft
- IATA code : WRG


PAWG - Wrangell

CURRENT METAR :
  • 172056Z 08006KT 10SM SCT015 SCT040 BKN060 04/02 A3039 RMK AO2 SLP292 T00390017 51010

EXPIRED METARs :
  • 171956Z 09006KT 10SM FEW005 SCT040 BKN060 03/02 A3039 RMK AO2 SLP290 T00330017
  • 171856Z 09007KT 10SM FEW005 SCT040 BKN060 03/01 A3038 RMK AO2 SLP287 T00280011

TAF PAWG
Valid from the 17 at 18:00 until the 18 at 18:00 UTC


171734Z 1718/1818 11005KT P6SM VCSH SCT025 BKN050
FM180600 09005KT P6SM VCSH SCT015 BKN025 OVC040 AMD LTD TO CLD VIS AND WIND 1806/1815



MET'MAP, your aeronautical weather chart ! - Copyright ORBIFLY December 2007 - Disclaimer

ORBIFLY MET'MAP TEAM :

Programming & Development : Alexandra Zaïnal
Concept & original design : Baudouin d'Aumeries
Assistance for programming : Marc-Olivier Méhu
Technical & hardware support : Manuel Goepfert

Contact : metmap@orbifly.com




SOURCES & CREDITS :

   NOAA       Earth
Advisory